Terminal Aerodrome Forecast
Issued by NWS Omaha/Valley, NE

Home | Current Version | Previous Version | Text Only | Print | Product List | Glossary On
Versions: 1 2 3 4 5 6 7 8 9 10 11 12 13 14 15 16 17 18 19 20 21 22 23 24 25 26 27 28 29 30 31 32 33 34 35 36 37 38 39 40 41 42
035
FTUS43 KOAX 171120
TAFOFK
TAF
KOFK 171120Z 1712/1812 09009KT P6SM BKN250
     FM171700 12010KT P6SM BKN150
     FM180100 09011KT P6SM SCT040 BKN120
     FM180300 05008KT P6SM SCT015 BKN035
     FM180600 05009KT 6SM RA OVC015
      TEMPO 1806/1808 2SM -SN OVC007
     FM180800 35009KT 4SM -SN OVC012
      TEMPO 1808/1812 1SM -SN OVC005=

USA.gov is the U.S. government's official web portal to all federal, state and local government web resources and services.